createdAt,value
2023-05-18T03:15:40.809Z,101044.47
2023-05-18T03:17:06.066Z,101046.00
2023-05-18T03:18:28.382Z,101047.53
2023-05-18T03:19:51.590Z,101040.44
2023-05-18T03:21:13.890Z,101043.84
2023-05-18T03:22:36.149Z,101038.31
2023-05-18T03:23:57.118Z,101048.91
2023-05-18T03:25:19.792Z,101052.47
2023-05-18T03:26:44.360Z,101045.06
2023-05-18T03:28:07.196Z,101052.97
2023-05-18T03:29:31.496Z,101052.84
2023-05-18T03:30:59.432Z,101053.69
2023-05-18T03:32:21.278Z,101049.00
2023-05-18T03:33:43.538Z,101052.53
2023-05-18T03:35:06.461Z,101051.38
2023-05-18T03:36:29.362Z,101055.91
2023-05-18T03:37:50.586Z,101060.28
2023-05-18T03:39:13.220Z,101058.28
2023-05-18T03:40:34.856Z,101061.66
2023-05-18T03:41:57.347Z,101055.28
2023-05-18T03:43:19.880Z,101061.34
2023-05-18T03:44:41.575Z,101057.66
2023-05-18T03:46:06.409Z,101063.72
2023-05-18T03:47:27.505Z,101061.72
2023-05-18T03:48:50.067Z,101060.56
2023-05-18T03:50:16.820Z,101065.94
2023-05-18T03:51:38.755Z,101060.25
2023-05-18T03:53:01.299Z,101067.16
2023-05-18T03:54:22.591Z,101063.31
2023-05-18T03:55:47.100Z,101067.53
2023-05-18T03:57:08.200Z,101071.63
2023-05-18T03:58:30.310Z,101077.84
2023-05-18T03:59:52.874Z,101082.75
2023-05-18T04:01:19.043Z,101072.69
2023-05-18T04:02:40.761Z,101069.69
2023-05-18T04:04:03.228Z,101077.44
2023-05-18T04:05:24.518Z,101075.28
2023-05-18T04:06:47.333Z,101075.13
2023-05-18T04:08:09.010Z,101077.34
2023-05-18T04:09:33.975Z,101081.56
2023-05-18T04:10:55.153Z,101085.78
2023-05-18T04:12:17.145Z,101085.63
2023-05-18T04:13:42.091Z,101088.00
2023-05-18T04:15:04.605Z,101091.38
2023-05-18T04:16:29.257Z,101093.09
2023-05-18T04:17:53.967Z,101090.22
2023-05-18T04:19:16.309Z,101091.06
2023-05-18T04:20:38.276Z,101097.84
2023-05-18T04:22:00.198Z,101096.69
2023-05-18T04:23:21.556Z,101099.22
2023-05-18T04:24:45.864Z,101105.13
2023-05-18T04:26:09.204Z,101097.59
2023-05-18T04:27:30.888Z,101098.28
2023-05-18T04:28:53.348Z,101097.28
2023-05-18T04:30:14.661Z,101098.63
2023-05-18T04:31:46.480Z,101101.69
2023-05-18T04:33:08.798Z,101100.72
2023-05-18T04:34:31.506Z,101104.09
2023-05-18T04:37:33.539Z,101094.66
2023-05-18T04:39:26.016Z,101102.28
2023-05-18T04:40:50.273Z,101089.28
2023-05-18T04:42:14.753Z,101107.69
2023-05-18T04:43:38.549Z,101107.41
2023-05-18T04:45:00.446Z,101108.75
2023-05-18T04:46:24.142Z,101108.44
2023-05-18T04:47:53.918Z,101106.25
2023-05-18T04:49:16.272Z,101105.09
2023-05-18T04:50:42.242Z,101109.31
2023-05-18T04:52:06.760Z,101111.53
2023-05-18T04:53:28.869Z,101106.81
2023-05-18T04:54:50.040Z,101108.34
2023-05-18T04:56:13.882Z,101108.84
2023-05-18T04:57:35.197Z,101110.38
2023-05-18T04:59:02.338Z,101106.69
2023-05-18T05:00:26.441Z,101107.03
2023-05-18T05:01:49.298Z,101111.25
2023-05-18T05:03:11.970Z,101107.22
2023-05-18T05:04:38.429Z,101111.13
2023-05-18T05:05:59.933Z,101112.31
2023-05-18T05:07:21.954Z,101107.25
2023-05-18T05:08:44.321Z,101116.53
2023-05-18T05:10:08.214Z,101105.44
2023-05-18T05:11:29.652Z,101112.03
2023-05-18T05:12:53.459Z,101115.91
2023-05-18T05:14:14.259Z,101113.53
2023-05-18T05:15:37.472Z,101116.78
2023-05-18T05:16:58.711Z,101119.81
2023-05-18T05:18:22.478Z,101123.69
2023-05-18T05:19:44.798Z,101110.69
2023-05-18T05:21:07.530Z,101116.63
2023-05-18T05:22:29.423Z,101121.03
2023-05-18T05:23:55.134Z,101115.97
2023-05-18T05:25:19.144Z,101123.38
2023-05-18T05:26:41.465Z,101118.31
2023-05-18T05:28:03.855Z,101124.72
2023-05-18T05:29:26.588Z,101115.28
2023-05-18T05:30:51.795Z,101124.41
2023-05-18T05:32:13.453Z,101123.53
2023-05-18T05:33:40.101Z,101124.72
2023-05-18T05:35:02.464Z,101126.69
2023-05-18T05:36:23.762Z,101125.19
2023-05-18T05:37:47.349Z,101137.84
2023-05-18T05:39:09.807Z,101128.03
2023-05-18T05:40:39.799Z,101130.88
2023-05-18T05:42:01.489Z,101132.69
2023-05-18T05:43:23.758Z,101123.53
2023-05-18T05:44:45.034Z,101120.63
2023-05-18T05:46:07.334Z,101128.56
2023-05-18T05:47:42.651Z,101112.13
2023-05-18T05:49:07.419Z,101130.78
2023-05-18T05:50:30.116Z,101123.78
2023-05-18T05:51:58.089Z,101128.63
2023-05-18T05:53:23.634Z,101128.00
2023-05-18T05:54:46.242Z,101125.72
2023-05-18T05:56:08.586Z,101133.25
2023-05-18T05:57:34.169Z,101133.44
2023-05-18T05:58:58.692Z,101124.38
2023-05-18T06:00:27.760Z,101128.97
2023-05-18T06:01:55.615Z,101131.69
2023-05-18T06:03:18.005Z,101133.56
2023-05-18T06:04:48.170Z,101130.41
2023-05-18T06:06:12.216Z,101126.63
2023-05-18T06:07:34.806Z,101126.44
2023-05-18T06:08:57.223Z,101128.25
2023-05-18T06:10:19.199Z,101127.41
2023-05-18T06:11:41.625Z,101134.88
2023-05-18T06:13:05.650Z,101136.25
2023-05-18T06:14:38.095Z,101135.06
2023-05-18T06:16:00.423Z,101135.31
2023-05-18T06:17:33.227Z,101143.56
2023-05-18T06:18:55.238Z,101146.53
2023-05-18T06:20:21.840Z,101144.28
2023-05-18T06:21:44.266Z,101139.28
2023-05-18T06:23:06.208Z,101138.88
2023-05-18T06:24:39.202Z,101142.84
2023-05-18T06:26:22.269Z,101144.38
2023-05-18T06:28:00.864Z,101146.94
2023-05-18T06:29:45.263Z,101149.16
2023-05-18T06:31:30.488Z,101149.69
2023-05-18T06:33:09.558Z,101149.53
2023-05-18T06:34:32.506Z,101155.00
2023-05-18T06:35:56.202Z,101149.59
2023-05-18T06:37:18.220Z,101145.47
2023-05-18T06:38:40.958Z,101150.31
2023-05-18T06:40:03.812Z,101147.81
2023-05-18T06:41:27.010Z,101160.63
2023-05-18T06:43:18.649Z,101154.97
2023-05-18T06:45:06.586Z,101158.16
2023-05-18T06:46:46.152Z,101153.13
2023-05-18T06:48:15.590Z,101157.97
2023-05-18T06:49:40.390Z,101154.25
2023-05-18T06:51:11.376Z,101159.94
2023-05-18T06:52:33.271Z,101155.34
2023-05-18T06:53:55.469Z,101148.91
2023-05-18T06:55:18.636Z,101145.84
2023-05-18T06:56:42.065Z,101153.81
2023-05-18T06:58:06.336Z,101151.75
2023-05-18T06:59:29.015Z,101157.19
2023-05-18T07:00:51.340Z,101153.44
2023-05-18T07:02:13.827Z,101153.91
2023-05-18T07:03:37.696Z,101153.28
2023-05-18T07:05:01.461Z,101166.28
2023-05-18T07:06:25.551Z,101154.97
2023-05-18T07:07:47.918Z,101163.38
2023-05-18T07:09:10.218Z,101157.94
2023-05-18T07:10:32.635Z,101159.19
2023-05-18T07:11:54.829Z,101160.25
2023-05-18T07:13:17.055Z,101153.34
2023-05-18T07:14:39.161Z,101161.75
2023-05-18T07:16:01.347Z,101160.91
2023-05-18T07:17:24.213Z,101162.75
2023-05-18T07:18:46.582Z,101159.59
2023-05-18T07:20:10.363Z,101158.91
2023-05-18T07:21:33.063Z,101165.41
2023-05-18T07:22:56.300Z,101163.44
2023-05-18T07:24:18.964Z,101164.78
2023-05-18T07:25:41.369Z,101157.09
2023-05-18T07:27:04.161Z,101168.53
2023-05-18T07:28:26.522Z,101169.22
2023-05-18T07:29:48.597Z,101165.94
2023-05-18T07:31:10.814Z,101166.63
2023-05-18T07:32:33.264Z,101170.31
2023-05-18T07:33:55.670Z,101173.81
2023-05-18T07:35:19.642Z,101169.25
2023-05-18T07:36:43.167Z,101163.00
2023-05-18T07:38:04.295Z,101164.53
2023-05-18T07:39:29.542Z,101165.09
2023-05-18T07:40:51.757Z,101168.81
2023-05-18T07:42:19.473Z,101164.63
2023-05-18T07:43:43.717Z,101162.94
2023-05-18T07:45:05.618Z,101177.03
2023-05-18T07:46:32.791Z,101168.69
2023-05-18T07:47:55.613Z,101165.31
2023-05-18T07:49:17.908Z,101175.03
2023-05-18T07:50:40.337Z,101176.59
2023-05-18T07:52:04.150Z,101170.91
2023-05-18T07:53:28.877Z,101172.41
2023-05-18T07:54:51.267Z,101172.81
2023-05-18T07:56:15.398Z,101170.81
2023-05-18T07:57:37.700Z,101181.38
2023-05-18T07:59:02.957Z,101175.31
2023-05-18T08:00:28.235Z,101176.69
2023-05-18T08:01:50.467Z,101171.25
2023-05-18T08:03:12.770Z,101172.28
2023-05-18T08:04:37.318Z,101170.53
2023-05-18T08:06:01.974Z,101182.56
2023-05-18T08:07:30.194Z,101180.75
2023-05-18T08:08:52.408Z,101174.81
2023-05-18T08:10:14.462Z,101178.78
2023-05-18T08:11:36.566Z,101174.41
2023-05-18T08:12:58.588Z,101176.31
2023-05-18T08:14:21.052Z,101174.41
2023-05-18T08:15:50.903Z,101179.81
2023-05-18T08:17:19.773Z,101180.53
2023-05-18T08:18:43.817Z,101174.91
2023-05-18T08:20:08.455Z,101196.03
2023-05-18T08:21:30.977Z,101184.25
2023-05-18T08:22:54.718Z,101189.63
2023-05-18T08:24:17.256Z,101186.91
2023-05-18T08:25:45.334Z,101189.28
2023-05-18T08:27:10.081Z,101183.94
2023-05-18T08:28:41.807Z,101185.34
2023-05-18T08:30:06.277Z,101191.56
2023-05-18T08:31:28.535Z,101195.63
2023-05-18T08:32:52.705Z,101192.88
2023-05-18T08:34:20.557Z,101193.75
2023-05-18T08:36:07.993Z,101175.25
2023-05-18T08:37:31.380Z,101178.00
2023-05-18T08:38:55.389Z,101191.34
2023-05-18T08:41:50.784Z,101193.34
2023-05-18T08:43:23.450Z,101194.25
2023-05-18T08:44:51.732Z,101195.56
2023-05-18T08:46:21.923Z,101197.88
2023-05-18T08:47:44.884Z,101194.44
2023-05-18T08:49:07.862Z,101185.06
2023-05-18T08:50:33.511Z,101184.06
2023-05-18T08:51:58.564Z,101186.78
2023-05-18T08:53:27.597Z,101181.72
2023-05-18T08:54:54.921Z,101194.47
2023-05-18T08:56:18.713Z,101183.94
2023-05-18T08:57:45.059Z,101197.84
2023-05-18T08:59:10.638Z,101186.09
2023-05-18T09:00:34.886Z,101179.56
2023-05-18T09:01:58.918Z,101173.56
2023-05-18T09:03:26.195Z,101187.97
2023-05-18T09:04:59.335Z,101180.16
2023-05-18T09:06:28.820Z,101174.31
2023-05-18T09:08:11.723Z,101175.78
2023-05-18T09:09:38.856Z,101178.19
2023-05-18T09:11:14.000Z,101164.16
2023-05-18T09:13:05.344Z,101156.88
2023-05-18T09:14:50.299Z,101171.47
2023-05-18T09:16:16.325Z,101159.63
2023-05-18T09:18:10.686Z,101166.56
2023-05-18T09:20:02.454Z,101156.81
2023-05-18T09:21:25.684Z,101158.28
2023-05-18T09:26:05.287Z,101146.63
2023-05-18T09:28:47.807Z,101129.69
2023-05-18T09:30:29.164Z,101133.66
2023-05-18T09:31:52.149Z,101143.53
2023-05-18T09:33:19.276Z,101134.47
2023-05-18T09:34:46.501Z,101130.44
2023-05-18T09:36:29.475Z,101140.97
2023-05-18T09:37:52.605Z,101132.41
2023-05-18T09:39:37.279Z,101122.13
2023-05-18T09:41:05.037Z,101118.75
2023-05-18T09:42:37.967Z,101121.97
2023-05-18T09:44:05.274Z,101128.06
2023-05-18T09:45:28.857Z,101119.97
2023-05-18T09:47:02.300Z,101129.28
2023-05-18T09:48:25.569Z,101122.75
2023-05-18T09:49:49.369Z,101124.28
2023-05-18T09:51:17.023Z,101127.28
2023-05-18T09:53:10.910Z,101124.84
2023-05-18T09:54:34.673Z,101134.84
2023-05-18T09:55:58.597Z,101143.53
2023-05-18T09:57:23.789Z,101131.53
2023-05-18T09:58:49.797Z,101131.78
2023-05-18T10:00:17.245Z,101135.94
2023-05-18T10:01:41.730Z,101122.47
2023-05-18T10:03:06.479Z,101134.25
2023-05-18T10:04:41.324Z,101128.69
2023-05-18T10:06:07.029Z,101120.53
2023-05-18T10:07:29.166Z,101120.09
2023-05-18T10:08:53.918Z,101128.47
2023-05-18T10:10:20.311Z,101121.25
2023-05-18T10:11:44.802Z,101133.19
2023-05-18T10:13:59.259Z,101121.84
2023-05-18T10:15:23.973Z,101121.00
2023-05-18T10:16:46.564Z,101112.13
2023-05-18T10:18:09.738Z,101116.56
2023-05-18T10:19:37.249Z,101107.78
2023-05-18T10:21:01.724Z,101101.16
2023-05-18T10:22:24.831Z,101108.78
2023-05-18T10:23:49.801Z,101102.97
2023-05-18T10:25:13.686Z,101112.03
2023-05-18T10:26:45.723Z,101095.53
2023-05-18T10:28:09.164Z,101104.56
2023-05-18T10:29:38.037Z,101109.19
2023-05-18T10:31:01.774Z,101095.00
2023-05-18T10:32:26.942Z,101097.59
2023-05-18T10:33:53.277Z,101089.03
2023-05-18T10:35:19.585Z,101088.34
2023-05-18T10:36:43.104Z,101086.84
2023-05-18T10:38:07.589Z,101095.81
2023-05-18T10:39:35.122Z,101092.75
2023-05-18T10:41:00.430Z,101085.91
2023-05-18T10:42:27.912Z,101088.63
2023-05-18T10:43:51.245Z,101079.03
2023-05-18T10:45:17.513Z,101087.66
2023-05-18T10:47:22.579Z,101084.09
2023-05-18T10:48:52.071Z,101074.22
2023-05-18T10:50:15.344Z,101075.09
2023-05-18T10:51:39.222Z,101093.06
2023-05-18T10:53:02.198Z,101080.91
2023-05-18T10:54:25.671Z,101071.97
2023-05-18T10:55:49.886Z,101074.94
2023-05-18T10:57:43.454Z,101067.56
2023-05-18T10:59:10.540Z,101057.63
2023-05-18T11:00:38.545Z,101079.88
2023-05-18T11:02:03.687Z,101074.63
2023-05-18T11:03:27.300Z,101075.00
2023-05-18T11:04:53.392Z,101072.56
2023-05-18T11:06:24.899Z,101075.69
2023-05-18T11:07:47.707Z,101053.81
2023-05-18T11:09:12.970Z,101067.47
2023-05-18T11:10:37.355Z,101063.56
2023-05-18T11:12:00.680Z,101074.22
2023-05-18T11:13:32.252Z,101081.41
2023-05-18T11:15:03.477Z,101080.13
2023-05-18T11:16:53.296Z,101078.09
2023-05-18T11:18:15.668Z,101080.69
2023-05-18T11:20:19.115Z,101077.22
2023-05-18T11:21:56.107Z,101068.63
2023-05-18T11:23:29.350Z,101080.22
2023-05-18T11:24:57.206Z,101079.44
2023-05-18T11:26:19.412Z,101064.41
2023-05-18T11:27:48.211Z,101080.41
2023-05-18T11:29:22.394Z,101075.91
2023-05-18T11:30:52.753Z,101091.50
2023-05-18T11:32:30.437Z,101074.94
2023-05-18T11:33:53.594Z,101075.72
2023-05-18T11:35:25.039Z,101089.41
2023-05-18T11:36:47.544Z,101076.84
2023-05-18T11:38:09.892Z,101079.06
2023-05-18T11:39:34.802Z,101086.31
2023-05-18T11:41:01.106Z,101077.56
2023-05-18T11:42:24.385Z,101084.72
2023-05-18T11:43:46.081Z,101087.25
2023-05-18T11:45:09.848Z,101085.69
2023-05-18T11:46:31.118Z,101075.56
2023-05-18T11:47:58.611Z,101070.44
2023-05-18T11:49:22.444Z,101079.00
2023-05-18T11:50:51.602Z,101069.69
2023-05-18T11:52:21.412Z,101087.63
2023-05-18T11:53:42.668Z,101073.41
2023-05-18T11:55:07.664Z,101078.75
2023-05-18T11:56:33.857Z,101071.53
2023-05-18T11:57:56.370Z,101075.38
2023-05-18T11:59:20.530Z,101078.41
2023-05-18T12:00:59.023Z,101072.78
2023-05-18T12:15:27.820Z,101082.66
2023-05-18T12:19:09.374Z,101070.31
2023-05-18T12:20:45.045Z,101050.38
2023-05-18T12:22:12.395Z,101064.22
2023-05-18T12:23:39.936Z,101058.97
2023-05-18T12:25:02.325Z,101069.88
2023-05-18T12:26:26.103Z,101058.53
2023-05-18T12:28:05.016Z,101055.19
2023-05-18T12:29:27.570Z,101063.59
2023-05-18T12:30:50.204Z,101067.34
2023-05-18T12:32:14.618Z,101049.72
2023-05-18T12:33:37.119Z,101049.53
2023-05-18T12:35:06.035Z,101049.13
2023-05-18T12:36:28.502Z,101045.31
2023-05-18T12:37:51.700Z,101055.84
2023-05-18T12:39:21.068Z,101057.28
2023-05-18T12:40:48.891Z,101041.75
2023-05-18T12:42:13.524Z,101046.59
2023-05-18T12:43:36.115Z,101047.63
2023-05-18T12:44:58.455Z,101050.59
2023-05-18T12:46:24.969Z,101056.03
2023-05-18T12:47:47.606Z,101053.91
2023-05-18T12:49:09.910Z,101042.19
2023-05-18T12:50:32.549Z,101036.72
2023-05-18T13:00:22.529Z,101041.56
2023-05-18T13:01:45.221Z,101034.84
2023-05-18T13:03:14.872Z,101042.81
2023-05-18T13:04:46.261Z,101030.88
2023-05-18T13:06:14.168Z,101042.59
2023-05-18T13:07:40.804Z,101034.84
2023-05-18T13:09:03.289Z,101042.63
2023-05-18T13:10:24.894Z,101040.53
2023-05-18T13:12:06.344Z,101042.00
2023-05-18T13:15:24.857Z,101014.09
2023-05-18T13:17:09.937Z,101017.44
2023-05-18T13:18:50.446Z,101023.75
2023-05-18T13:20:42.072Z,101027.75
2023-05-18T13:22:07.718Z,101039.28
2023-05-18T13:23:53.782Z,101042.19
2023-05-18T13:25:34.292Z,101040.53
2023-05-18T13:26:56.382Z,101034.66
2023-05-18T13:28:21.851Z,101038.22
2023-05-18T13:29:46.406Z,101035.50
2023-05-18T13:31:11.579Z,101038.84
2023-05-18T13:32:35.430Z,101037.78
2023-05-18T13:33:57.646Z,101034.22
2023-05-18T13:35:18.818Z,101034.22
2023-05-18T13:36:41.202Z,101036.13
2023-05-18T13:38:03.422Z,101021.44
2023-05-18T13:39:25.650Z,101028.34
2023-05-18T13:40:47.795Z,101016.44
2023-05-18T13:42:08.940Z,101022.28
2023-05-18T13:43:31.301Z,101018.31
2023-05-18T13:44:53.740Z,101014.31
2023-05-18T13:46:18.959Z,101016.41
2023-05-18T13:47:41.444Z,101012.63
2023-05-18T13:49:03.724Z,101008.25
2023-05-18T13:50:27.342Z,101018.91
2023-05-18T13:51:49.953Z,101013.25
2023-05-18T13:53:12.334Z,101013.25
2023-05-18T13:54:33.875Z,101027.50
2023-05-18T13:55:56.353Z,101006.16
2023-05-18T13:57:18.663Z,101011.38
2023-05-18T13:58:42.048Z,101009.47
2023-05-18T14:00:07.215Z,101011.38
2023-05-18T14:01:38.403Z,101009.91
2023-05-18T14:03:00.881Z,101006.16
2023-05-18T14:04:22.905Z,101000.47
2023-05-18T14:05:45.277Z,101001.72
2023-05-18T14:07:08.055Z,100995.25
2023-05-18T14:08:30.504Z,100998.56
2023-05-18T14:09:54.346Z,101001.09
2023-05-18T14:11:18.670Z,100988.09
2023-05-18T14:12:42.787Z,100997.75
2023-05-18T14:14:05.196Z,100998.56
2023-05-18T14:15:30.885Z,100999.41
2023-05-18T14:16:55.238Z,100999.19
2023-05-18T14:18:17.869Z,100999.84
2023-05-18T14:19:40.170Z,101000.44
2023-05-18T14:21:02.463Z,100996.47
2023-05-18T14:22:26.437Z,100998.13
2023-05-18T14:23:49.004Z,100992.47
2023-05-18T14:25:10.684Z,100993.75
2023-05-18T14:26:32.929Z,100998.78
2023-05-18T14:27:55.166Z,100994.16
2023-05-18T14:29:17.241Z,100987.84
2023-05-18T14:30:39.455Z,100982.00
2023-05-18T14:32:01.903Z,100994.38
2023-05-18T14:33:24.219Z,100991.19
2023-05-18T14:34:52.172Z,100980.47
2023-05-18T14:36:14.259Z,100984.66
2023-05-18T14:37:37.007Z,100978.97
2023-05-18T14:38:59.335Z,100980.00
2023-05-18T14:40:21.676Z,100983.31
2023-05-18T14:41:48.187Z,100985.19
2023-05-18T14:43:10.271Z,100987.66
2023-05-18T14:44:32.260Z,100979.00
2023-05-18T14:46:07.354Z,100981.09
2023-05-18T14:47:31.900Z,100988.84
2023-05-18T14:48:54.230Z,100989.47
2023-05-18T14:50:16.725Z,100989.47
2023-05-18T14:51:38.199Z,100992.81
2023-05-18T14:53:00.557Z,100992.81
2023-05-18T14:54:22.578Z,100986.50
2023-05-18T14:55:45.156Z,100978.53
2023-05-18T14:57:10.310Z,100973.91
2023-05-18T14:58:32.380Z,100976.84
2023-05-18T14:59:55.328Z,100989.03
2023-05-18T15:01:19.779Z,100984.47
2023-05-18T15:02:46.754Z,100981.13
2023-05-18T15:04:10.799Z,100987.03
2023-05-18T15:05:33.142Z,100984.13
2023-05-18T15:06:55.075Z,100994.03
2023-05-18T15:08:17.629Z,100990.50
2023-05-18T15:09:40.162Z,100988.41
2023-05-18T15:11:02.056Z,100986.31
2023-05-18T15:12:27.983Z,100989.41
2023-05-18T15:13:50.571Z,100992.34
2023-05-18T15:15:13.040Z,100987.06
2023-05-18T15:16:35.361Z,100981.59
2023-05-18T15:18:02.311Z,100986.41
2023-05-18T15:19:30.460Z,100979.03
2023-05-18T15:20:55.441Z,100975.88
2023-05-18T15:22:17.926Z,100984.84
2023-05-18T15:23:40.082Z,100991.34
2023-05-18T15:25:07.763Z,100996.59
2023-05-18T15:26:29.862Z,100983.81
2023-05-18T15:27:53.090Z,100985.94
2023-05-18T15:29:15.275Z,100991.41
2023-05-18T15:30:37.673Z,100988.72
2023-05-18T15:31:59.849Z,100987.25
2023-05-18T15:33:31.378Z,100983.94
2023-05-18T15:34:57.548Z,100981.66
2023-05-18T15:37:58.448Z,100984.22
2023-05-18T15:39:27.844Z,100982.75
2023-05-18T15:40:59.185Z,100986.75
2023-05-18T15:42:24.073Z,100983.78
2023-05-18T15:43:51.969Z,100985.28
2023-05-18T15:45:17.390Z,100975.59
2023-05-18T15:46:39.430Z,100976.22
2023-05-18T15:48:01.754Z,100985.03
2023-05-18T15:49:25.694Z,100984.41
2023-05-18T15:50:46.718Z,100987.56
2023-05-18T15:52:12.402Z,100974.38
2023-05-18T15:53:34.791Z,100978.56
2023-05-18T15:54:59.900Z,100990.69
2023-05-18T15:56:22.337Z,100985.41
2023-05-18T15:57:44.625Z,100977.66
2023-05-18T15:59:08.477Z,100978.03
2023-05-18T16:00:33.540Z,100985.41
2023-05-18T16:01:56.156Z,100978.50
2023-05-18T16:03:19.313Z,100971.13
2023-05-18T16:04:41.831Z,100973.66
2023-05-18T16:06:03.884Z,100983.94
2023-05-18T16:07:26.572Z,100982.84
2023-05-18T16:08:48.513Z,100989.16
2023-05-18T16:10:12.855Z,100984.53
2023-05-18T16:11:36.213Z,100977.00
2023-05-18T16:13:04.610Z,100976.16
2023-05-18T16:14:32.878Z,100977.66
2023-05-18T16:15:54.959Z,100983.31
2023-05-18T16:17:17.385Z,100983.97
2023-05-18T16:18:38.748Z,100976.66
2023-05-18T16:20:04.893Z,100971.66
2023-05-18T16:21:27.133Z,100978.81
2023-05-18T16:22:53.728Z,100980.72
2023-05-18T16:24:27.204Z,100975.25
2023-05-18T16:25:49.603Z,100976.53
2023-05-18T16:27:11.682Z,100983.47
2023-05-18T16:28:33.951Z,100976.38
2023-05-18T16:29:58.800Z,100975.53
2023-05-18T16:31:21.225Z,100978.25
2023-05-18T16:32:44.715Z,100977.22
2023-05-18T16:34:06.856Z,100978.06
2023-05-18T16:35:47.073Z,100980.81
2023-05-18T16:37:20.170Z,100996.50
2023-05-18T16:38:42.509Z,100980.81
2023-05-18T16:40:05.712Z,100986.25
2023-05-18T16:41:30.845Z,100976.59
2023-05-18T16:43:11.293Z,100976.13
2023-05-18T16:49:47.071Z,100969.97
2023-05-18T16:51:50.085Z,100979.34
2023-05-18T16:53:25.635Z,100978.94
2023-05-18T16:55:08.359Z,100986.69
2023-05-18T16:59:52.477Z,100975.94
2023-05-18T17:02:45.896Z,100987.28
2023-05-18T17:12:05.987Z,100983.19
2023-05-18T17:13:38.437Z,100991.97
2023-05-18T17:16:43.250Z,100993.16
2023-05-18T17:18:06.254Z,101000.94
2023-05-18T17:19:28.528Z,100986.22
2023-05-18T17:20:51.078Z,100990.44
2023-05-18T17:22:13.622Z,101002.13
2023-05-18T17:23:35.756Z,100996.09
2023-05-18T17:24:59.860Z,101006.97
2023-05-18T17:26:22.404Z,101001.91
2023-05-18T17:27:44.765Z,100993.56
2023-05-18T17:29:09.768Z,100994.56
2023-05-18T17:31:14.839Z,101002.13
2023-05-18T17:32:40.900Z,100989.13
2023-05-18T17:34:03.156Z,100997.69
2023-05-18T17:35:31.864Z,101000.63
2023-05-18T17:37:02.702Z,100995.19
2023-05-18T17:38:25.253Z,100984.69
2023-05-18T17:39:49.260Z,101000.00
2023-05-18T17:41:11.755Z,101002.47
2023-05-18T17:42:34.069Z,101004.97
2023-05-18T17:43:56.702Z,100989.28
2023-05-18T17:45:37.741Z,100997.44
2023-05-18T17:47:03.054Z,101004.94
2023-05-18T17:48:35.131Z,100990.25
2023-05-18T17:50:00.133Z,100995.06
2023-05-18T17:58:28.927Z,101005.81
2023-05-18T18:00:52.920Z,101010.59
2023-05-18T18:03:25.921Z,100988.50
2023-05-18T18:04:55.131Z,101002.31
2023-05-18T18:06:47.047Z,100996.63
2023-05-18T18:08:38.109Z,100989.47
2023-05-18T18:10:38.886Z,100994.66
2023-05-18T18:15:03.170Z,101020.38
2023-05-18T18:18:39.415Z,101010.88
2023-05-18T18:20:08.733Z,101008.38
2023-05-18T18:22:08.455Z,101001.84
2023-05-18T18:23:34.512Z,101003.06
2023-05-18T18:24:58.417Z,101002.88
2023-05-18T18:26:27.408Z,100999.41
2023-05-18T18:28:25.478Z,101001.88
2023-05-18T18:29:53.071Z,100997.84
2023-05-18T18:31:21.514Z,100999.34
2023-05-18T18:32:52.937Z,101019.81
2023-05-18T18:34:31.976Z,101012.47
2023-05-18T18:35:59.392Z,101020.63
2023-05-18T18:37:24.240Z,101022.69
2023-05-18T18:38:47.017Z,101027.44
2023-05-18T18:40:17.413Z,101022.41
2023-05-18T18:41:39.510Z,101020.28
2023-05-18T18:43:03.253Z,101028.81
2023-05-18T18:44:28.205Z,101019.16
2023-05-18T18:45:50.784Z,101026.00
2023-05-18T18:47:12.242Z,101018.59
2023-05-18T18:49:06.863Z,101032.75
2023-05-18T18:50:31.294Z,101012.75
2023-05-18T18:52:13.106Z,101029.41
2023-05-18T18:53:44.353Z,101043.63
2023-05-18T18:55:10.502Z,101041.00
2023-05-18T18:56:33.107Z,101039.50
2023-05-18T18:57:55.784Z,101045.50
2023-05-18T18:59:17.991Z,101044.38
2023-05-18T19:00:39.936Z,101048.84
2023-05-18T19:02:02.270Z,101051.78
2023-05-18T19:03:24.449Z,101047.75
2023-05-18T19:04:46.944Z,101053.72
2023-05-18T19:06:09.512Z,101048.84
2023-05-18T19:07:33.970Z,101057.34
2023-05-18T19:09:01.232Z,101045.38
2023-05-18T19:10:48.574Z,101048.13
2023-05-18T19:12:11.193Z,101049.19
2023-05-18T19:13:33.299Z,101059.56
2023-05-18T19:14:58.893Z,101058.22
2023-05-18T19:16:21.739Z,101052.16
2023-05-18T19:17:48.391Z,101047.47
2023-05-18T19:19:10.968Z,101061.19
2023-05-18T19:20:33.040Z,101058.88
2023-05-18T19:21:54.700Z,101067.91
2023-05-18T19:23:18.547Z,101058.94
2023-05-18T19:24:41.356Z,101062.84
2023-05-18T19:26:03.285Z,101056.94
2023-05-18T19:27:27.777Z,101068.97
2023-05-18T19:28:50.335Z,101070.03
2023-05-18T19:30:19.156Z,101070.19
2023-05-18T19:31:43.140Z,101069.72
2023-05-18T19:33:05.403Z,101061.94
2023-05-18T19:34:28.934Z,101070.06
2023-05-18T19:35:51.783Z,101064.84
2023-05-18T19:37:15.122Z,101066.06
2023-05-18T19:38:38.617Z,101063.69
2023-05-18T19:39:59.719Z,101070.13
2023-05-18T19:41:24.408Z,101064.88
2023-05-18T19:42:45.881Z,101069.66
2023-05-18T19:44:08.214Z,101073.56
2023-05-18T19:45:32.225Z,101064.78
2023-05-18T19:46:54.973Z,101067.50
2023-05-18T19:48:27.872Z,101070.56
2023-05-18T19:49:52.972Z,101072.59
2023-05-18T19:51:15.281Z,101072.78
2023-05-18T19:52:37.887Z,101059.31
2023-05-18T19:54:01.593Z,101071.63
2023-05-18T19:55:23.937Z,101075.53
2023-05-18T19:56:46.080Z,101070.81
2023-05-18T19:58:08.531Z,101074.72
2023-05-18T19:59:30.955Z,101072.34
2023-05-18T20:00:54.867Z,101083.16
2023-05-18T20:02:17.005Z,101079.78
2023-05-18T20:03:43.732Z,101080.81
2023-05-18T20:05:07.317Z,101090.97
2023-05-18T20:06:49.357Z,101067.50
2023-05-18T20:08:15.297Z,101077.50
2023-05-18T20:09:40.506Z,101085.59
2023-05-18T20:11:07.291Z,101091.38
2023-05-18T20:12:38.081Z,101095.94
2023-05-18T20:14:01.470Z,101091.03
2023-05-18T20:15:24.102Z,101099.31
2023-05-18T20:16:46.455Z,101094.25
2023-05-18T20:18:09.078Z,101097.97
2023-05-18T20:19:31.559Z,101101.03
2023-05-18T20:21:00.101Z,101107.47
2023-05-18T20:22:22.459Z,101091.09
2023-05-18T20:23:47.433Z,101097.34
2023-05-18T20:25:12.578Z,101100.25
2023-05-18T20:26:34.957Z,101095.34
2023-05-18T20:28:00.928Z,101100.75
2023-05-18T20:29:23.322Z,101102.63
2023-05-18T20:30:44.518Z,101099.25
2023-05-18T20:32:07.736Z,101102.31
2023-05-18T20:33:30.491Z,101106.84
2023-05-18T20:34:58.456Z,101108.72
2023-05-18T20:36:23.247Z,101111.09
2023-05-18T20:37:45.663Z,101106.53
2023-05-18T20:39:07.499Z,101110.94
2023-05-18T20:40:32.220Z,101115.50
2023-05-18T20:41:55.039Z,101111.13
2023-05-18T20:43:21.440Z,101110.47
2023-05-18T20:44:46.383Z,101113.00
2023-05-18T20:46:08.253Z,101114.19